sensor_id;sensor_type;location;lat;lon;timestamp;temperature;humidity
21033;DHT22;10675;47.976;7.824;2023-03-13T00:01:25;13.70;90.40
21033;DHT22;10675;47.976;7.824;2023-03-13T00:03:51;13.70;90.40
21033;DHT22;10675;47.976;7.824;2023-03-13T00:06:17;13.70;90.30
21033;DHT22;10675;47.976;7.824;2023-03-13T00:08:43;13.70;90.50
21033;DHT22;10675;47.976;7.824;2023-03-13T00:11:11;13.60;90.50
21033;DHT22;10675;47.976;7.824;2023-03-13T00:13:37;13.60;90.70
21033;DHT22;10675;47.976;7.824;2023-03-13T00:16:08;13.60;90.70
21033;DHT22;10675;47.976;7.824;2023-03-13T00:18:35;13.70;90.60
21033;DHT22;10675;47.976;7.824;2023-03-13T00:21:05;13.70;90.60
21033;DHT22;10675;47.976;7.824;2023-03-13T00:23:32;13.60;90.60
21033;DHT22;10675;47.976;7.824;2023-03-13T00:25:58;13.60;90.60
21033;DHT22;10675;47.976;7.824;2023-03-13T00:28:25;13.60;90.70
21033;DHT22;10675;47.976;7.824;2023-03-13T00:30:58;13.60;90.60
21033;DHT22;10675;47.976;7.824;2023-03-13T00:33:24;13.60;90.60
21033;DHT22;10675;47.976;7.824;2023-03-13T00:35:49;13.60;90.60
21033;DHT22;10675;47.976;7.824;2023-03-13T00:38:15;13.60;90.60
21033;DHT22;10675;47.976;7.824;2023-03-13T00:40:40;13.60;90.60
21033;DHT22;10675;47.976;7.824;2023-03-13T00:43:06;13.60;90.70
21033;DHT22;10675;47.976;7.824;2023-03-13T00:45:31;13.60;90.50
21033;DHT22;10675;47.976;7.824;2023-03-13T00:47:57;13.70;90.40
21033;DHT22;10675;47.976;7.824;2023-03-13T00:50:22;13.70;90.40
21033;DHT22;10675;47.976;7.824;2023-03-13T00:52:48;13.80;90.30
21033;DHT22;10675;47.976;7.824;2023-03-13T00:55:13;13.70;90.60
21033;DHT22;10675;47.976;7.824;2023-03-13T00:57:39;13.80;90.50
21033;DHT22;10675;47.976;7.824;2023-03-13T01:00:05;13.80;90.50
21033;DHT22;10675;47.976;7.824;2023-03-13T01:02:31;13.80;90.50
21033;DHT22;10675;47.976;7.824;2023-03-13T01:04:56;13.80;90.60
21033;DHT22;10675;47.976;7.824;2023-03-13T01:07:22;13.80;90.70
21033;DHT22;10675;47.976;7.824;2023-03-13T01:09:47;13.90;90.60
21033;DHT22;10675;47.976;7.824;2023-03-13T01:12:13;14.00;90.40
21033;DHT22;10675;47.976;7.824;2023-03-13T01:14:38;14.00;90.30
21033;DHT22;10675;47.976;7.824;2023-03-13T01:17:04;14.00;90.20
21033;DHT22;10675;47.976;7.824;2023-03-13T01:19:29;13.90;90.40
21033;DHT22;10675;47.976;7.824;2023-03-13T01:21:55;13.90;90.30
21033;DHT22;10675;47.976;7.824;2023-03-13T01:24:20;13.90;90.40
21033;DHT22;10675;47.976;7.824;2023-03-13T01:26:47;13.90;90.30
21033;DHT22;10675;47.976;7.824;2023-03-13T01:29:13;13.90;90.80
21033;DHT22;10675;47.976;7.824;2023-03-13T01:31:38;13.70;91.40
21033;DHT22;10675;47.976;7.824;2023-03-13T01:34:05;13.60;91.90
21033;DHT22;10675;47.976;7.824;2023-03-13T01:36:31;13.50;92.60
21033;DHT22;10675;47.976;7.824;2023-03-13T01:38:58;13.40;92.70
21033;DHT22;10675;47.976;7.824;2023-03-13T01:41:25;13.30;92.80
21033;DHT22;10675;47.976;7.824;2023-03-13T01:43:52;13.30;92.80
21033;DHT22;10675;47.976;7.824;2023-03-13T01:46:25;13.30;92.90
21033;DHT22;10675;47.976;7.824;2023-03-13T01:52:09;13.30;92.90
21033;DHT22;10675;47.976;7.824;2023-03-13T01:54:40;13.40;92.20
21033;DHT22;10675;47.976;7.824;2023-03-13T01:57:08;13.40;92.50
21033;DHT22;10675;47.976;7.824;2023-03-13T01:59:45;13.40;92.50
21033;DHT22;10675;47.976;7.824;2023-03-13T02:02:12;13.50;92.70
21033;DHT22;10675;47.976;7.824;2023-03-13T02:04:46;13.40;92.90
21033;DHT22;10675;47.976;7.824;2023-03-13T02:07:26;13.40;93.00
21033;DHT22;10675;47.976;7.824;2023-03-13T02:09:55;13.40;92.80
21033;DHT22;10675;47.976;7.824;2023-03-13T02:12:32;13.30;93.20
21033;DHT22;10675;47.976;7.824;2023-03-13T02:15:01;13.30;93.10
21033;DHT22;10675;47.976;7.824;2023-03-13T02:17:27;13.40;92.90
21033;DHT22;10675;47.976;7.824;2023-03-13T02:19:53;13.40;93.00
21033;DHT22;10675;47.976;7.824;2023-03-13T02:27:56;13.50;93.10
21033;DHT22;10675;47.976;7.824;2023-03-13T02:30:22;13.50;92.90
21033;DHT22;10675;47.976;7.824;2023-03-13T02:32:49;13.50;92.70
21033;DHT22;10675;47.976;7.824;2023-03-13T02:35:17;13.50;92.80
21033;DHT22;10675;47.976;7.824;2023-03-13T02:37:45;13.50;92.80
21033;DHT22;10675;47.976;7.824;2023-03-13T02:40:15;13.50;92.80
21033;DHT22;10675;47.976;7.824;2023-03-13T02:42:44;13.50;93.10
21033;DHT22;10675;47.976;7.824;2023-03-13T02:45:12;13.40;93.10
21033;DHT22;10675;47.976;7.824;2023-03-13T02:47:38;13.50;93.00
21033;DHT22;10675;47.976;7.824;2023-03-13T02:50:04;13.60;92.90
21033;DHT22;10675;47.976;7.824;2023-03-13T02:52:35;13.50;93.30
21033;DHT22;10675;47.976;7.824;2023-03-13T02:55:11;13.50;93.50
21033;DHT22;10675;47.976;7.824;2023-03-13T02:57:38;13.50;93.30
21033;DHT22;10675;47.976;7.824;2023-03-13T03:00:06;13.50;93.40
21033;DHT22;10675;47.976;7.824;2023-03-13T03:02:32;13.40;93.70
21033;DHT22;10675;47.976;7.824;2023-03-13T03:04:57;13.40;93.90
21033;DHT22;10675;47.976;7.824;2023-03-13T03:07:23;13.40;93.80
21033;DHT22;10675;47.976;7.824;2023-03-13T03:09:48;13.40;94.10
21033;DHT22;10675;47.976;7.824;2023-03-13T03:12:14;13.40;94.10
21033;DHT22;10675;47.976;7.824;2023-03-13T03:14:39;13.30;94.40
21033;DHT22;10675;47.976;7.824;2023-03-13T03:17:05;13.30;94.70
21033;DHT22;10675;47.976;7.824;2023-03-13T03:19:30;13.20;95.00
21033;DHT22;10675;47.976;7.824;2023-03-13T03:21:56;13.20;95.30
21033;DHT22;10675;47.976;7.824;2023-03-13T03:24:21;13.20;95.80
21033;DHT22;10675;47.976;7.824;2023-03-13T03:26:47;13.10;96.00
21033;DHT22;10675;47.976;7.824;2023-03-13T03:29:12;13.10;96.20
21033;DHT22;10675;47.976;7.824;2023-03-13T03:31:38;13.00;96.40
21033;DHT22;10675;47.976;7.824;2023-03-13T03:34:03;13.00;96.80
21033;DHT22;10675;47.976;7.824;2023-03-13T03:36:29;13.00;96.90
21033;DHT22;10675;47.976;7.824;2023-03-13T03:38:54;13.00;97.30
21033;DHT22;10675;47.976;7.824;2023-03-13T03:41:21;12.90;97.60
21033;DHT22;10675;47.976;7.824;2023-03-13T03:43:46;12.90;97.60
21033;DHT22;10675;47.976;7.824;2023-03-13T03:46:12;12.90;97.90
21033;DHT22;10675;47.976;7.824;2023-03-13T03:48:39;12.80;98.50
21033;DHT22;10675;47.976;7.824;2023-03-13T03:51:05;12.70;99.40
21033;DHT22;10675;47.976;7.824;2023-03-13T03:53:30;12.50;99.90
21033;DHT22;10675;47.976;7.824;2023-03-13T03:55:57;12.40;99.90
21033;DHT22;10675;47.976;7.824;2023-03-13T03:58:22;12.30;99.90
21033;DHT22;10675;47.976;7.824;2023-03-13T04:00:48;12.20;99.90
21033;DHT22;10675;47.976;7.824;2023-03-13T04:03:14;12.10;99.90
21033;DHT22;10675;47.976;7.824;2023-03-13T04:05:40;12.20;99.90
21033;DHT22;10675;47.976;7.824;2023-03-13T04:08:06;12.30;99.90
21033;DHT22;10675;47.976;7.824;2023-03-13T04:10:32;12.30;99.90
21033;DHT22;10675;47.976;7.824;2023-03-13T04:12:57;12.50;99.90
21033;DHT22;10675;47.976;7.824;2023-03-13T04:15:23;12.50;99.90
21033;DHT22;10675;47.976;7.824;2023-03-13T04:17:48;12.50;99.90
21033;DHT22;10675;47.976;7.824;2023-03-13T04:20:14;12.60;99.90
21033;DHT22;10675;47.976;7.824;2023-03-13T04:22:40;12.60;99.90
21033;DHT22;10675;47.976;7.824;2023-03-13T04:25:06;12.60;99.90
21033;DHT22;10675;47.976;7.824;2023-03-13T04:27:33;12.70;99.90
21033;DHT22;10675;47.976;7.824;2023-03-13T04:29:59;12.80;99.90
21033;DHT22;10675;47.976;7.824;2023-03-13T04:32:25;12.80;99.90
21033;DHT22;10675;47.976;7.824;2023-03-13T04:34:50;12.80;99.90
21033;DHT22;10675;47.976;7.824;2023-03-13T04:37:16;12.90;99.90
21033;DHT22;10675;47.976;7.824;2023-03-13T04:39:42;12.90;99.90
21033;DHT22;10675;47.976;7.824;2023-03-13T04:42:09;12.90;99.90
21033;DHT22;10675;47.976;7.824;2023-03-13T04:44:35;12.80;99.90
21033;DHT22;10675;47.976;7.824;2023-03-13T04:47:00;12.90;99.90
21033;DHT22;10675;47.976;7.824;2023-03-13T04:49:26;12.90;99.90
21033;DHT22;10675;47.976;7.824;2023-03-13T04:51:51;12.90;99.90
21033;DHT22;10675;47.976;7.824;2023-03-13T04:54:17;12.90;99.90
21033;DHT22;10675;47.976;7.824;2023-03-13T04:56:42;12.90;99.90
21033;DHT22;10675;47.976;7.824;2023-03-13T04:59:10;13.00;99.90
21033;DHT22;10675;47.976;7.824;2023-03-13T05:01:36;12.80;99.90
21033;DHT22;10675;47.976;7.824;2023-03-13T05:04:01;12.60;99.90
21033;DHT22;10675;47.976;7.824;2023-03-13T05:06:27;12.40;99.90
21033;DHT22;10675;47.976;7.824;2023-03-13T05:08:52;12.30;99.90
21033;DHT22;10675;47.976;7.824;2023-03-13T05:11:18;13.10;99.90
21033;DHT22;10675;47.976;7.824;2023-03-13T05:13:43;12.40;99.90
21033;DHT22;10675;47.976;7.824;2023-03-13T05:16:09;12.40;99.90
21033;DHT22;10675;47.976;7.824;2023-03-13T05:18:34;12.30;99.90
21033;DHT22;10675;47.976;7.824;2023-03-13T05:21:01;12.30;99.90
21033;DHT22;10675;47.976;7.824;2023-03-13T05:23:26;12.40;99.90
21033;DHT22;10675;47.976;7.824;2023-03-13T05:25:52;12.40;99.90
21033;DHT22;10675;47.976;7.824;2023-03-13T05:28:17;12.60;99.90
21033;DHT22;10675;47.976;7.824;2023-03-13T05:30:43;12.60;99.90
21033;DHT22;10675;47.976;7.824;2023-03-13T05:33:08;12.60;99.90
21033;DHT22;10675;47.976;7.824;2023-03-13T05:35:34;12.70;99.90
21033;DHT22;10675;47.976;7.824;2023-03-13T05:37:59;12.70;99.90
21033;DHT22;10675;47.976;7.824;2023-03-13T05:40:25;12.70;99.90
21033;DHT22;10675;47.976;7.824;2023-03-13T05:42:50;12.70;99.90
21033;DHT22;10675;47.976;7.824;2023-03-13T05:45:16;12.70;99.90
21033;DHT22;10675;47.976;7.824;2023-03-13T05:47:42;12.70;99.90
21033;DHT22;10675;47.976;7.824;2023-03-13T05:50:07;12.80;99.90
21033;DHT22;10675;47.976;7.824;2023-03-13T05:52:33;13.00;99.90
21033;DHT22;10675;47.976;7.824;2023-03-13T05:54:59;13.00;99.90
21033;DHT22;10675;47.976;7.824;2023-03-13T05:57:25;13.00;99.90
21033;DHT22;10675;47.976;7.824;2023-03-13T05:59:50;13.00;99.90
21033;DHT22;10675;47.976;7.824;2023-03-13T06:02:16;13.00;99.90
21033;DHT22;10675;47.976;7.824;2023-03-13T06:04:41;13.00;99.90
21033;DHT22;10675;47.976;7.824;2023-03-13T06:07:07;13.00;99.90
21033;DHT22;10675;47.976;7.824;2023-03-13T06:09:32;13.00;99.90
21033;DHT22;10675;47.976;7.824;2023-03-13T06:11:58;13.00;99.90
21033;DHT22;10675;47.976;7.824;2023-03-13T06:14:24;13.10;99.90
21033;DHT22;10675;47.976;7.824;2023-03-13T06:16:49;13.10;99.90
21033;DHT22;10675;47.976;7.824;2023-03-13T06:19:15;13.10;99.90
21033;DHT22;10675;47.976;7.824;2023-03-13T06:21:41;13.10;99.90
21033;DHT22;10675;47.976;7.824;2023-03-13T06:24:06;13.10;99.90
21033;DHT22;10675;47.976;7.824;2023-03-13T06:26:32;13.20;99.90
21033;DHT22;10675;47.976;7.824;2023-03-13T06:28:58;13.20;99.90
21033;DHT22;10675;47.976;7.824;2023-03-13T06:31:23;13.30;99.90
21033;DHT22;10675;47.976;7.824;2023-03-13T06:33:55;13.70;99.90
21033;DHT22;10675;47.976;7.824;2023-03-13T06:36:21;14.50;99.90
21033;DHT22;10675;47.976;7.824;2023-03-13T06:38:47;14.70;99.90
21033;DHT22;10675;47.976;7.824;2023-03-13T06:41:13;15.10;99.90
21033;DHT22;10675;47.976;7.824;2023-03-13T06:43:38;15.00;99.90
21033;DHT22;10675;47.976;7.824;2023-03-13T06:46:05;15.10;99.90
21033;DHT22;10675;47.976;7.824;2023-03-13T06:48:31;15.50;99.90
21033;DHT22;10675;47.976;7.824;2023-03-13T06:50:57;15.50;99.20
21033;DHT22;10675;47.976;7.824;2023-03-13T06:53:22;15.50;98.40
21033;DHT22;10675;47.976;7.824;2023-03-13T06:55:48;15.70;98.60
21033;DHT22;10675;47.976;7.824;2023-03-13T06:58:14;15.60;98.60
21033;DHT22;10675;47.976;7.824;2023-03-13T07:00:39;15.40;99.90
21033;DHT22;10675;47.976;7.824;2023-03-13T07:03:06;15.70;99.90
21033;DHT22;10675;47.976;7.824;2023-03-13T07:05:32;15.60;99.00
21033;DHT22;10675;47.976;7.824;2023-03-13T07:07:58;14.90;98.80
21033;DHT22;10675;47.976;7.824;2023-03-13T07:10:24;14.50;99.80
21033;DHT22;10675;47.976;7.824;2023-03-13T07:12:49;14.20;99.90
21033;DHT22;10675;47.976;7.824;2023-03-13T07:15:15;14.10;99.90
21033;DHT22;10675;47.976;7.824;2023-03-13T07:17:40;14.10;99.90
21033;DHT22;10675;47.976;7.824;2023-03-13T07:20:07;14.10;99.90
21033;DHT22;10675;47.976;7.824;2023-03-13T07:22:36;14.10;99.90
21033;DHT22;10675;47.976;7.824;2023-03-13T07:25:03;14.10;99.90
21033;DHT22;10675;47.976;7.824;2023-03-13T07:27:29;14.10;99.90
21033;DHT22;10675;47.976;7.824;2023-03-13T07:29:54;14.20;99.90
21033;DHT22;10675;47.976;7.824;2023-03-13T07:32:20;14.20;99.90
21033;DHT22;10675;47.976;7.824;2023-03-13T07:34:45;14.30;99.90
21033;DHT22;10675;47.976;7.824;2023-03-13T07:37:12;14.40;99.90
21033;DHT22;10675;47.976;7.824;2023-03-13T07:39:38;14.40;99.90
21033;DHT22;10675;47.976;7.824;2023-03-13T07:42:03;14.50;99.90
21033;DHT22;10675;47.976;7.824;2023-03-13T07:44:29;14.50;99.90
21033;DHT22;10675;47.976;7.824;2023-03-13T07:46:54;14.60;99.90
21033;DHT22;10675;47.976;7.824;2023-03-13T07:49:23;14.70;99.90
21033;DHT22;10675;47.976;7.824;2023-03-13T07:51:48;14.80;99.90
21033;DHT22;10675;47.976;7.824;2023-03-13T07:54:15;14.90;99.90
21033;DHT22;10675;47.976;7.824;2023-03-13T07:56:41;15.00;99.90
21033;DHT22;10675;47.976;7.824;2023-03-13T07:59:07;15.10;99.90
21033;DHT22;10675;47.976;7.824;2023-03-13T08:01:32;15.20;99.90
21033;DHT22;10675;47.976;7.824;2023-03-13T08:03:58;15.30;99.90
21033;DHT22;10675;47.976;7.824;2023-03-13T08:06:30;15.50;99.60
21033;DHT22;10675;47.976;7.824;2023-03-13T08:08:57;15.50;99.10
21033;DHT22;10675;47.976;7.824;2023-03-13T08:11:24;15.60;98.60
21033;DHT22;10675;47.976;7.824;2023-03-13T08:13:51;15.60;98.70
21033;DHT22;10675;47.976;7.824;2023-03-13T08:16:21;15.60;98.60
21033;DHT22;10675;47.976;7.824;2023-03-13T08:18:48;15.60;98.20
21033;DHT22;10675;47.976;7.824;2023-03-13T08:21:16;15.60;98.00
21033;DHT22;10675;47.976;7.824;2023-03-13T08:23:42;15.60;98.30
21033;DHT22;10675;47.976;7.824;2023-03-13T08:26:11;15.60;98.50
21033;DHT22;10675;47.976;7.824;2023-03-13T08:28:37;15.50;98.70
21033;DHT22;10675;47.976;7.824;2023-03-13T08:31:18;15.50;98.30
21033;DHT22;10675;47.976;7.824;2023-03-13T08:33:45;15.40;98.50
21033;DHT22;10675;47.976;7.824;2023-03-13T08:36:20;15.50;98.30
21033;DHT22;10675;47.976;7.824;2023-03-13T08:38:47;15.50;98.50
21033;DHT22;10675;47.976;7.824;2023-03-13T08:41:16;15.50;98.10
21033;DHT22;10675;47.976;7.824;2023-03-13T08:43:42;15.60;98.20
21033;DHT22;10675;47.976;7.824;2023-03-13T08:46:08;15.80;97.90
21033;DHT22;10675;47.976;7.824;2023-03-13T08:48:34;16.00;97.50
21033;DHT22;10675;47.976;7.824;2023-03-13T08:51:11;16.10;97.20
21033;DHT22;10675;47.976;7.824;2023-03-13T08:53:38;16.10;97.00
21033;DHT22;10675;47.976;7.824;2023-03-13T08:56:05;16.20;97.00
21033;DHT22;10675;47.976;7.824;2023-03-13T08:58:31;16.30;96.80
21033;DHT22;10675;47.976;7.824;2023-03-13T09:01:02;16.40;96.20
21033;DHT22;10675;47.976;7.824;2023-03-13T09:03:27;16.60;95.70
21033;DHT22;10675;47.976;7.824;2023-03-13T09:05:55;16.50;95.60
21033;DHT22;10675;47.976;7.824;2023-03-13T09:08:20;16.60;95.60
21033;DHT22;10675;47.976;7.824;2023-03-13T09:10:46;16.80;94.90
21033;DHT22;10675;47.976;7.824;2023-03-13T09:13:11;17.00;95.10
21033;DHT22;10675;47.976;7.824;2023-03-13T09:15:37;17.30;94.60
21033;DHT22;10675;47.976;7.824;2023-03-13T09:18:03;17.40;93.80
21033;DHT22;10675;47.976;7.824;2023-03-13T09:20:28;17.50;93.70
21033;DHT22;10675;47.976;7.824;2023-03-13T09:22:54;17.60;93.60
21033;DHT22;10675;47.976;7.824;2023-03-13T09:25:19;17.60;93.40
21033;DHT22;10675;47.976;7.824;2023-03-13T09:27:45;17.60;93.10
21033;DHT22;10675;47.976;7.824;2023-03-13T09:30:11;17.60;92.90
21033;DHT22;10675;47.976;7.824;2023-03-13T09:32:36;17.50;92.90
21033;DHT22;10675;47.976;7.824;2023-03-13T09:35:02;17.80;93.10
21033;DHT22;10675;47.976;7.824;2023-03-13T09:37:27;17.90;92.50
21033;DHT22;10675;47.976;7.824;2023-03-13T09:39:53;17.80;91.80
21033;DHT22;10675;47.976;7.824;2023-03-13T09:42:31;17.90;92.20
21033;DHT22;10675;47.976;7.824;2023-03-13T09:45:04;17.90;91.00
21033;DHT22;10675;47.976;7.824;2023-03-13T09:47:47;18.10;91.00
21033;DHT22;10675;47.976;7.824;2023-03-13T09:50:19;18.20;90.50
21033;DHT22;10675;47.976;7.824;2023-03-13T09:52:49;18.40;90.50
21033;DHT22;10675;47.976;7.824;2023-03-13T09:55:20;18.50;90.50
21033;DHT22;10675;47.976;7.824;2023-03-13T09:58:18;18.30;89.00
21033;DHT22;10675;47.976;7.824;2023-03-13T10:00:53;18.40;89.00
21033;DHT22;10675;47.976;7.824;2023-03-13T10:03:24;18.40;90.10
21033;DHT22;10675;47.976;7.824;2023-03-13T10:05:55;18.50;88.90
21033;DHT22;10675;47.976;7.824;2023-03-13T10:08:32;18.50;89.70
21033;DHT22;10675;47.976;7.824;2023-03-13T10:11:18;18.50;89.00
21033;DHT22;10675;47.976;7.824;2023-03-13T10:16:37;18.70;89.00
21033;DHT22;10675;47.976;7.824;2023-03-13T10:19:13;18.60;88.30
21033;DHT22;10675;47.976;7.824;2023-03-13T10:21:40;18.60;88.80
21033;DHT22;10675;47.976;7.824;2023-03-13T10:26:47;18.90;88.10
21033;DHT22;10675;47.976;7.824;2023-03-13T10:29:22;19.10;87.00
21033;DHT22;10675;47.976;7.824;2023-03-13T10:31:59;19.10;87.70
21033;DHT22;10675;47.976;7.824;2023-03-13T10:34:27;19.40;87.00
21033;DHT22;10675;47.976;7.824;2023-03-13T10:36:59;19.90;90.00
21033;DHT22;10675;47.976;7.824;2023-03-13T10:39:27;20.10;85.20
21033;DHT22;10675;47.976;7.824;2023-03-13T10:44:45;20.10;82.70
21033;DHT22;10675;47.976;7.824;2023-03-13T10:47:13;20.00;81.60
21033;DHT22;10675;47.976;7.824;2023-03-13T10:49:48;19.80;82.60
21033;DHT22;10675;47.976;7.824;2023-03-13T10:52:48;19.40;81.00
21033;DHT22;10675;47.976;7.824;2023-03-13T10:55:19;19.40;82.40
21033;DHT22;10675;47.976;7.824;2023-03-13T10:58:03;19.50;80.50
21033;DHT22;10675;47.976;7.824;2023-03-13T11:00:37;19.60;80.60
21033;DHT22;10675;47.976;7.824;2023-03-13T11:03:30;19.70;81.30
21033;DHT22;10675;47.976;7.824;2023-03-13T11:06:02;19.80;78.80
21033;DHT22;10675;47.976;7.824;2023-03-13T11:08:34;19.80;78.40
21033;DHT22;10675;47.976;7.824;2023-03-13T11:11:05;19.80;79.30
21033;DHT22;10675;47.976;7.824;2023-03-13T11:13:42;19.70;77.60
21033;DHT22;10675;47.976;7.824;2023-03-13T11:16:21;19.90;78.40
21033;DHT22;10675;47.976;7.824;2023-03-13T11:33:11;20.40;75.50
21033;DHT22;10675;47.976;7.824;2023-03-13T11:38:36;20.90;76.20
21033;DHT22;10675;47.976;7.824;2023-03-13T11:44:12;20.90;74.90
21033;DHT22;10675;47.976;7.824;2023-03-13T11:49:28;21.00;74.50
21033;DHT22;10675;47.976;7.824;2023-03-13T11:57:20;21.50;72.00
21033;DHT22;10675;47.976;7.824;2023-03-13T12:00:14;21.90;71.80
21033;DHT22;10675;47.976;7.824;2023-03-13T12:06:02;22.00;72.40
21033;DHT22;10675;47.976;7.824;2023-03-13T12:08:33;21.90;70.70
21033;DHT22;10675;47.976;7.824;2023-03-13T12:11:05;21.90;69.80
21033;DHT22;10675;47.976;7.824;2023-03-13T12:13:41;21.80;69.80
21033;DHT22;10675;47.976;7.824;2023-03-13T12:16:13;21.80;69.50
21033;DHT22;10675;47.976;7.824;2023-03-13T12:18:41;21.70;68.70
21033;DHT22;10675;47.976;7.824;2023-03-13T12:24:18;21.40;68.90
21033;DHT22;10675;47.976;7.824;2023-03-13T12:26:59;21.40;70.30
21033;DHT22;10675;47.976;7.824;2023-03-13T12:29:50;21.60;69.10
21033;DHT22;10675;47.976;7.824;2023-03-13T12:35:20;21.80;68.70
21033;DHT22;10675;47.976;7.824;2023-03-13T12:37:57;21.80;68.20
21033;DHT22;10675;47.976;7.824;2023-03-13T12:40:37;21.80;67.80
21033;DHT22;10675;47.976;7.824;2023-03-13T12:43:19;22.00;67.20
21033;DHT22;10675;47.976;7.824;2023-03-13T12:48:49;22.20;65.00
21033;DHT22;10675;47.976;7.824;2023-03-13T12:54:51;22.50;62.40
21033;DHT22;10675;47.976;7.824;2023-03-13T13:00:02;22.50;63.30
21033;DHT22;10675;47.976;7.824;2023-03-13T13:02:31;22.60;64.10
21033;DHT22;10675;47.976;7.824;2023-03-13T13:04:59;22.70;63.20
21033;DHT22;10675;47.976;7.824;2023-03-13T13:07:32;22.30;64.60
21033;DHT22;10675;47.976;7.824;2023-03-13T13:12:27;21.90;66.50
21033;DHT22;10675;47.976;7.824;2023-03-13T13:14:56;22.00;66.40
21033;DHT22;10675;47.976;7.824;2023-03-13T13:20:30;21.60;67.60
21033;DHT22;10675;47.976;7.824;2023-03-13T13:22:58;21.50;67.00
21033;DHT22;10675;47.976;7.824;2023-03-13T13:25:42;21.60;68.10
21033;DHT22;10675;47.976;7.824;2023-03-13T13:30:47;21.60;68.60
21033;DHT22;10675;47.976;7.824;2023-03-13T13:39:24;21.20;69.40
21033;DHT22;10675;47.976;7.824;2023-03-13T13:41:53;21.30;70.40
21033;DHT22;10675;47.976;7.824;2023-03-13T13:44:24;21.40;69.70
21033;DHT22;10675;47.976;7.824;2023-03-13T13:46:51;21.40;70.40
21033;DHT22;10675;47.976;7.824;2023-03-13T13:49:23;21.40;70.80
21033;DHT22;10675;47.976;7.824;2023-03-13T13:57:19;21.20;70.70
21033;DHT22;10675;47.976;7.824;2023-03-13T13:59:50;21.50;70.20
21033;DHT22;10675;47.976;7.824;2023-03-13T14:02:44;21.60;70.00
21033;DHT22;10675;47.976;7.824;2023-03-13T14:05:24;21.50;69.40
21033;DHT22;10675;47.976;7.824;2023-03-13T14:08:15;21.60;69.60
21033;DHT22;10675;47.976;7.824;2023-03-13T14:10:46;21.70;69.80
21033;DHT22;10675;47.976;7.824;2023-03-13T14:13:18;22.00;69.60
21033;DHT22;10675;47.976;7.824;2023-03-13T14:15:46;22.10;68.40
21033;DHT22;10675;47.976;7.824;2023-03-13T14:18:24;22.00;67.30
21033;DHT22;10675;47.976;7.824;2023-03-13T14:21:02;21.90;67.10
21033;DHT22;10675;47.976;7.824;2023-03-13T14:23:44;22.00;67.70
21033;DHT22;10675;47.976;7.824;2023-03-13T14:26:20;22.30;67.40
21033;DHT22;10675;47.976;7.824;2023-03-13T14:28:48;22.50;66.60
21033;DHT22;10675;47.976;7.824;2023-03-13T14:31:49;22.70;67.20
21033;DHT22;10675;47.976;7.824;2023-03-13T14:34:15;22.70;64.80
21033;DHT22;10675;47.976;7.824;2023-03-13T14:36:57;22.90;66.40
21033;DHT22;10675;47.976;7.824;2023-03-13T14:42:17;23.90;63.30
21033;DHT22;10675;47.976;7.824;2023-03-13T14:44:44;24.20;62.00
21033;DHT22;10675;47.976;7.824;2023-03-13T14:47:22;24.30;59.80
21033;DHT22;10675;47.976;7.824;2023-03-13T14:49:57;24.00;59.20
21033;DHT22;10675;47.976;7.824;2023-03-13T14:52:26;24.00;58.60
21033;DHT22;10675;47.976;7.824;2023-03-13T14:54:57;24.10;58.40
21033;DHT22;10675;47.976;7.824;2023-03-13T14:57:26;24.40;59.50
21033;DHT22;10675;47.976;7.824;2023-03-13T14:59:55;24.80;57.90
21033;DHT22;10675;47.976;7.824;2023-03-13T15:02:39;24.70;55.40
21033;DHT22;10675;47.976;7.824;2023-03-13T15:05:06;24.70;56.40
21033;DHT22;10675;47.976;7.824;2023-03-13T15:07:40;24.80;56.50
21033;DHT22;10675;47.976;7.824;2023-03-13T15:10:33;24.70;56.20
21033;DHT22;10675;47.976;7.824;2023-03-13T15:15:38;24.40;55.50
21033;DHT22;10675;47.976;7.824;2023-03-13T15:18:25;24.30;54.60
21033;DHT22;10675;47.976;7.824;2023-03-13T15:20:54;24.20;54.90
21033;DHT22;10675;47.976;7.824;2023-03-13T15:23:20;24.30;54.30
21033;DHT22;10675;47.976;7.824;2023-03-13T15:25:46;24.50;54.50
21033;DHT22;10675;47.976;7.824;2023-03-13T15:28:18;24.50;54.30
21033;DHT22;10675;47.976;7.824;2023-03-13T15:30:46;24.20;55.70
21033;DHT22;10675;47.976;7.824;2023-03-13T15:33:15;24.10;55.50
21033;DHT22;10675;47.976;7.824;2023-03-13T15:35:42;23.70;56.20
21033;DHT22;10675;47.976;7.824;2023-03-13T15:38:14;23.70;56.70
21033;DHT22;10675;47.976;7.824;2023-03-13T15:40:40;23.70;56.60
21033;DHT22;10675;47.976;7.824;2023-03-13T15:43:06;23.50;55.70
21033;DHT22;10675;47.976;7.824;2023-03-13T15:45:32;23.70;55.70
21033;DHT22;10675;47.976;7.824;2023-03-13T15:47:59;23.80;54.70
21033;DHT22;10675;47.976;7.824;2023-03-13T15:50:25;23.90;55.70
21033;DHT22;10675;47.976;7.824;2023-03-13T15:52:55;23.90;55.80
21033;DHT22;10675;47.976;7.824;2023-03-13T15:55:24;23.80;55.30
21033;DHT22;10675;47.976;7.824;2023-03-13T15:57:50;23.70;55.60
21033;DHT22;10675;47.976;7.824;2023-03-13T16:00:24;23.50;55.10
21033;DHT22;10675;47.976;7.824;2023-03-13T16:02:51;23.30;55.20
21033;DHT22;10675;47.976;7.824;2023-03-13T16:05:17;23.40;55.70
21033;DHT22;10675;47.976;7.824;2023-03-13T16:07:42;23.30;54.90
21033;DHT22;10675;47.976;7.824;2023-03-13T16:10:23;23.40;52.40
21033;DHT22;10675;47.976;7.824;2023-03-13T16:12:49;24.00;51.30
21033;DHT22;10675;47.976;7.824;2023-03-13T16:15:15;24.90;49.00
21033;DHT22;10675;47.976;7.824;2023-03-13T16:17:40;25.40;57.40
21033;DHT22;10675;47.976;7.824;2023-03-13T16:20:15;24.70;50.30
21033;DHT22;10675;47.976;7.824;2023-03-13T16:22:41;23.90;51.80
21033;DHT22;10675;47.976;7.824;2023-03-13T16:25:08;23.40;49.00
21033;DHT22;10675;47.976;7.824;2023-03-13T16:27:34;23.00;53.10
21033;DHT22;10675;47.976;7.824;2023-03-13T16:30:00;22.70;52.90
21033;DHT22;10675;47.976;7.824;2023-03-13T16:32:31;22.50;52.90
21033;DHT22;10675;47.976;7.824;2023-03-13T16:34:56;22.70;52.70
21033;DHT22;10675;47.976;7.824;2023-03-13T16:37:24;23.60;48.50
21033;DHT22;10675;47.976;7.824;2023-03-13T16:39:49;24.10;47.60
21033;DHT22;10675;47.976;7.824;2023-03-13T16:42:15;24.60;46.50
21033;DHT22;10675;47.976;7.824;2023-03-13T16:44:41;24.90;47.10
21033;DHT22;10675;47.976;7.824;2023-03-13T16:47:22;24.80;45.40
21033;DHT22;10675;47.976;7.824;2023-03-13T16:49:49;25.00;45.00
21033;DHT22;10675;47.976;7.824;2023-03-13T16:52:16;24.80;44.80
21033;DHT22;10675;47.976;7.824;2023-03-13T16:54:42;24.40;45.20
21033;DHT22;10675;47.976;7.824;2023-03-13T16:57:14;24.20;45.90
21033;DHT22;10675;47.976;7.824;2023-03-13T16:59:40;23.60;46.90
21033;DHT22;10675;47.976;7.824;2023-03-13T17:02:16;23.10;47.60
21033;DHT22;10675;47.976;7.824;2023-03-13T17:04:42;22.60;48.00
21033;DHT22;10675;47.976;7.824;2023-03-13T17:07:28;22.50;49.40
21033;DHT22;10675;47.976;7.824;2023-03-13T17:09:54;22.30;49.70